sensor_id;sensor_type;location;lat;lon;timestamp;temperature;humidity
18648;DHT22;9453;50.294;18.644;2023-06-04T04:02:21;11.50;75.90
18648;DHT22;9453;50.294;18.644;2023-06-04T04:04:48;11.50;76.00
18648;DHT22;9453;50.294;18.644;2023-06-04T04:07:15;11.50;75.80
18648;DHT22;9453;50.294;18.644;2023-06-04T04:09:42;11.60;75.90
18648;DHT22;9453;50.294;18.644;2023-06-04T04:12:10;11.60;75.90
18648;DHT22;9453;50.294;18.644;2023-06-04T04:14:38;11.60;75.70
18648;DHT22;9453;50.294;18.644;2023-06-04T04:17:05;11.70;75.70
18648;DHT22;9453;50.294;18.644;2023-06-04T04:19:34;11.70;75.60
18648;DHT22;9453;50.294;18.644;2023-06-04T04:22:01;11.80;75.50
18648;DHT22;9453;50.294;18.644;2023-06-04T04:24:28;11.80;75.40
18648;DHT22;9453;50.294;18.644;2023-06-04T04:26:55;11.80;75.80
18648;DHT22;9453;50.294;18.644;2023-06-04T04:29:22;11.80;75.40
18648;DHT22;9453;50.294;18.644;2023-06-04T04:31:50;11.90;75.40
18648;DHT22;9453;50.294;18.644;2023-06-04T04:34:17;11.90;75.10
18648;DHT22;9453;50.294;18.644;2023-06-04T04:36:47;11.90;75.20
18648;DHT22;9453;50.294;18.644;2023-06-04T04:39:17;12.00;75.30
18648;DHT22;9453;50.294;18.644;2023-06-04T04:41:44;12.10;75.10
18648;DHT22;9453;50.294;18.644;2023-06-04T04:44:11;12.20;75.00
18648;DHT22;9453;50.294;18.644;2023-06-04T04:46:38;12.30;74.80
18648;DHT22;9453;50.294;18.644;2023-06-04T04:49:05;12.40;74.60
18648;DHT22;9453;50.294;18.644;2023-06-04T04:51:32;12.40;74.30
18648;DHT22;9453;50.294;18.644;2023-06-04T04:54:00;12.50;74.30
18648;DHT22;9453;50.294;18.644;2023-06-04T04:56:28;12.60;74.30
18648;DHT22;9453;50.294;18.644;2023-06-04T04:58:55;12.70;74.10
18648;DHT22;9453;50.294;18.644;2023-06-04T05:01:22;12.70;74.00
18648;DHT22;9453;50.294;18.644;2023-06-04T05:03:50;12.80;73.20
18648;DHT22;9453;50.294;18.644;2023-06-04T05:06:17;12.80;73.20
18648;DHT22;9453;50.294;18.644;2023-06-04T05:08:44;12.90;73.30
18648;DHT22;9453;50.294;18.644;2023-06-04T05:11:12;13.00;73.40
18648;DHT22;9453;50.294;18.644;2023-06-04T05:13:39;13.10;73.30
18648;DHT22;9453;50.294;18.644;2023-06-04T05:16:07;13.10;72.50
18648;DHT22;9453;50.294;18.644;2023-06-04T05:18:37;13.20;72.70
18648;DHT22;9453;50.294;18.644;2023-06-04T05:21:06;13.30;72.80
18648;DHT22;9453;50.294;18.644;2023-06-04T05:23:33;13.40;72.50
18648;DHT22;9453;50.294;18.644;2023-06-04T05:26:02;13.50;72.20
18648;DHT22;9453;50.294;18.644;2023-06-04T05:28:31;13.60;72.00
18648;DHT22;9453;50.294;18.644;2023-06-04T05:30:59;13.70;72.00
18648;DHT22;9453;50.294;18.644;2023-06-04T05:33:26;13.80;71.60
18648;DHT22;9453;50.294;18.644;2023-06-04T05:35:53;13.90;71.40
18648;DHT22;9453;50.294;18.644;2023-06-04T05:38:23;14.00;71.40
18648;DHT22;9453;50.294;18.644;2023-06-04T05:40:51;14.10;71.20
18648;DHT22;9453;50.294;18.644;2023-06-04T05:43:18;14.20;71.10
18648;DHT22;9453;50.294;18.644;2023-06-04T05:45:47;14.40;70.70
18648;DHT22;9453;50.294;18.644;2023-06-04T05:48:14;14.50;70.20
18648;DHT22;9453;50.294;18.644;2023-06-04T05:50:41;14.50;69.70
18648;DHT22;9453;50.294;18.644;2023-06-04T05:53:08;14.70;69.50
18648;DHT22;9453;50.294;18.644;2023-06-04T05:55:34;14.70;68.60
18648;DHT22;9453;50.294;18.644;2023-06-04T05:58:02;14.80;66.40
18648;DHT22;9453;50.294;18.644;2023-06-04T06:00:28;14.90;66.50
18648;DHT22;9453;50.294;18.644;2023-06-04T06:02:57;15.00;66.60
18648;DHT22;9453;50.294;18.644;2023-06-04T06:05:23;15.10;66.60
18648;DHT22;9453;50.294;18.644;2023-06-04T06:07:50;15.20;65.10
18648;DHT22;9453;50.294;18.644;2023-06-04T06:10:17;15.30;64.70
18648;DHT22;9453;50.294;18.644;2023-06-04T06:12:44;15.40;64.90
18648;DHT22;9453;50.294;18.644;2023-06-04T06:15:11;15.50;65.00
18648;DHT22;9453;50.294;18.644;2023-06-04T06:17:38;15.60;64.00
18648;DHT22;9453;50.294;18.644;2023-06-04T06:20:08;15.70;64.00
18648;DHT22;9453;50.294;18.644;2023-06-04T06:22:35;15.80;63.70
18648;DHT22;9453;50.294;18.644;2023-06-04T06:25:02;15.90;63.10
18648;DHT22;9453;50.294;18.644;2023-06-04T06:27:31;15.90;62.50
18648;DHT22;9453;50.294;18.644;2023-06-04T06:29:58;16.00;62.80
18648;DHT22;9453;50.294;18.644;2023-06-04T06:32:25;16.10;62.70
18648;DHT22;9453;50.294;18.644;2023-06-04T06:34:52;16.30;62.40
18648;DHT22;9453;50.294;18.644;2023-06-04T06:37:21;16.30;60.90
18648;DHT22;9453;50.294;18.644;2023-06-04T06:39:48;16.50;61.00
18648;DHT22;9453;50.294;18.644;2023-06-04T06:42:15;16.50;59.80
18648;DHT22;9453;50.294;18.644;2023-06-04T06:44:43;16.60;59.40
18648;DHT22;9453;50.294;18.644;2023-06-04T06:47:10;16.60;59.40
18648;DHT22;9453;50.294;18.644;2023-06-04T06:49:39;16.70;60.00
18648;DHT22;9453;50.294;18.644;2023-06-04T06:52:06;16.80;60.00
18648;DHT22;9453;50.294;18.644;2023-06-04T06:54:34;16.90;58.80
18648;DHT22;9453;50.294;18.644;2023-06-04T06:57:01;16.90;58.10
18648;DHT22;9453;50.294;18.644;2023-06-04T06:59:28;17.00;58.20
18648;DHT22;9453;50.294;18.644;2023-06-04T07:01:55;17.00;58.20
18648;DHT22;9453;50.294;18.644;2023-06-04T07:04:22;17.10;58.10
18648;DHT22;9453;50.294;18.644;2023-06-04T07:06:49;17.20;57.40
18648;DHT22;9453;50.294;18.644;2023-06-04T07:09:16;17.20;57.70
18648;DHT22;9453;50.294;18.644;2023-06-04T07:11:44;17.30;57.50
18648;DHT22;9453;50.294;18.644;2023-06-04T07:14:11;17.40;57.60
18648;DHT22;9453;50.294;18.644;2023-06-04T07:16:38;17.50;57.40
18648;DHT22;9453;50.294;18.644;2023-06-04T07:19:05;17.50;56.40
18648;DHT22;9453;50.294;18.644;2023-06-04T07:21:32;17.60;56.40
18648;DHT22;9453;50.294;18.644;2023-06-04T07:23:59;17.60;57.10
18648;DHT22;9453;50.294;18.644;2023-06-04T07:26:26;17.70;56.20
18648;DHT22;9453;50.294;18.644;2023-06-04T07:28:57;17.80;54.50
18648;DHT22;9453;50.294;18.644;2023-06-04T07:31:24;17.80;55.10
18648;DHT22;9453;50.294;18.644;2023-06-04T07:33:51;17.90;55.50
18648;DHT22;9453;50.294;18.644;2023-06-04T07:36:18;18.00;55.10
18648;DHT22;9453;50.294;18.644;2023-06-04T07:38:46;18.00;55.30
18648;DHT22;9453;50.294;18.644;2023-06-04T07:41:13;18.10;55.50
18648;DHT22;9453;50.294;18.644;2023-06-04T07:43:40;18.10;54.30
18648;DHT22;9453;50.294;18.644;2023-06-04T07:46:08;18.20;54.30
18648;DHT22;9453;50.294;18.644;2023-06-04T07:48:35;18.30;54.20
18648;DHT22;9453;50.294;18.644;2023-06-04T07:51:03;18.20;53.20
18648;DHT22;9453;50.294;18.644;2023-06-04T07:53:34;18.30;53.30
18648;DHT22;9453;50.294;18.644;2023-06-04T07:56:06;18.30;53.40
18648;DHT22;9453;50.294;18.644;2023-06-04T07:58:34;18.30;53.30
18648;DHT22;9453;50.294;18.644;2023-06-04T08:01:01;18.40;54.00
18648;DHT22;9453;50.294;18.644;2023-06-04T08:03:30;18.50;54.40
18648;DHT22;9453;50.294;18.644;2023-06-04T08:05:57;18.60;54.30
18648;DHT22;9453;50.294;18.644;2023-06-04T08:08:25;18.70;53.40
18648;DHT22;9453;50.294;18.644;2023-06-04T08:10:52;18.80;52.50
18648;DHT22;9453;50.294;18.644;2023-06-04T08:13:19;18.80;52.60
18648;DHT22;9453;50.294;18.644;2023-06-04T08:15:46;18.90;52.10
18648;DHT22;9453;50.294;18.644;2023-06-04T08:18:13;18.90;52.40
18648;DHT22;9453;50.294;18.644;2023-06-04T08:20:43;19.00;52.00
18648;DHT22;9453;50.294;18.644;2023-06-04T08:23:10;19.10;52.20
18648;DHT22;9453;50.294;18.644;2023-06-04T08:25:37;19.10;51.80
18648;DHT22;9453;50.294;18.644;2023-06-04T08:28:03;19.20;51.90
18648;DHT22;9453;50.294;18.644;2023-06-04T08:30:30;19.30;51.90
18648;DHT22;9453;50.294;18.644;2023-06-04T08:33:01;19.30;52.00
18648;DHT22;9453;50.294;18.644;2023-06-04T08:35:28;19.40;51.80
18648;DHT22;9453;50.294;18.644;2023-06-04T08:37:56;19.40;50.40
18648;DHT22;9453;50.294;18.644;2023-06-04T08:40:24;19.40;50.40
18648;DHT22;9453;50.294;18.644;2023-06-04T08:42:55;19.40;51.40
18648;DHT22;9453;50.294;18.644;2023-06-04T08:45:23;19.40;49.20
18648;DHT22;9453;50.294;18.644;2023-06-04T08:47:51;19.50;50.00
18648;DHT22;9453;50.294;18.644;2023-06-04T08:50:19;19.50;50.40
18648;DHT22;9453;50.294;18.644;2023-06-04T08:52:47;19.60;51.00
18648;DHT22;9453;50.294;18.644;2023-06-04T08:55:16;19.70;50.50
18648;DHT22;9453;50.294;18.644;2023-06-04T08:57:43;19.70;49.40
18648;DHT22;9453;50.294;18.644;2023-06-04T09:00:11;19.70;49.50
18648;DHT22;9453;50.294;18.644;2023-06-04T09:02:39;19.70;49.30
18648;DHT22;9453;50.294;18.644;2023-06-04T09:05:07;19.80;49.70
18648;DHT22;9453;50.294;18.644;2023-06-04T09:07:36;19.80;49.40
18648;DHT22;9453;50.294;18.644;2023-06-04T09:10:04;19.80;49.00
18648;DHT22;9453;50.294;18.644;2023-06-04T09:12:36;19.90;49.60
18648;DHT22;9453;50.294;18.644;2023-06-04T09:15:04;19.90;49.90
18648;DHT22;9453;50.294;18.644;2023-06-04T09:17:32;19.90;50.10
18648;DHT22;9453;50.294;18.644;2023-06-04T09:20:00;20.00;49.70
18648;DHT22;9453;50.294;18.644;2023-06-04T09:22:35;20.00;50.20
18648;DHT22;9453;50.294;18.644;2023-06-04T09:25:05;20.10;50.50
18648;DHT22;9453;50.294;18.644;2023-06-04T09:27:39;20.10;50.90
18648;DHT22;9453;50.294;18.644;2023-06-04T09:30:07;20.10;50.50
18648;DHT22;9453;50.294;18.644;2023-06-04T09:32:34;20.10;49.90
18648;DHT22;9453;50.294;18.644;2023-06-04T09:35:12;20.20;50.80
18648;DHT22;9453;50.294;18.644;2023-06-04T09:37:39;20.30;50.20
18648;DHT22;9453;50.294;18.644;2023-06-04T09:40:08;20.30;50.30
18648;DHT22;9453;50.294;18.644;2023-06-04T09:42:46;20.30;49.20
18648;DHT22;9453;50.294;18.644;2023-06-04T09:45:26;20.40;49.30
18648;DHT22;9453;50.294;18.644;2023-06-04T09:47:53;20.40;49.90
18648;DHT22;9453;50.294;18.644;2023-06-04T09:50:25;20.50;49.90
18648;DHT22;9453;50.294;18.644;2023-06-04T09:52:52;20.60;49.60
18648;DHT22;9453;50.294;18.644;2023-06-04T09:55:20;20.60;49.60
18648;DHT22;9453;50.294;18.644;2023-06-04T09:57:50;20.60;48.80
18648;DHT22;9453;50.294;18.644;2023-06-04T10:00:18;20.60;48.50
18648;DHT22;9453;50.294;18.644;2023-06-04T10:02:46;20.70;48.80
18648;DHT22;9453;50.294;18.644;2023-06-04T10:05:14;20.70;48.90
18648;DHT22;9453;50.294;18.644;2023-06-04T10:07:43;20.70;49.60
18648;DHT22;9453;50.294;18.644;2023-06-04T10:10:15;20.80;50.20
18648;DHT22;9453;50.294;18.644;2023-06-04T10:12:43;20.90;49.20
18648;DHT22;9453;50.294;18.644;2023-06-04T10:15:12;20.80;48.30
18648;DHT22;9453;50.294;18.644;2023-06-04T10:17:40;20.90;48.30
18648;DHT22;9453;50.294;18.644;2023-06-04T10:20:08;20.80;48.10
18648;DHT22;9453;50.294;18.644;2023-06-04T10:22:36;20.90;48.50
18648;DHT22;9453;50.294;18.644;2023-06-04T10:25:04;20.90;48.30
18648;DHT22;9453;50.294;18.644;2023-06-04T10:27:32;20.80;47.20
18648;DHT22;9453;50.294;18.644;2023-06-04T10:30:01;20.90;48.30
18648;DHT22;9453;50.294;18.644;2023-06-04T10:32:30;21.00;47.60
18648;DHT22;9453;50.294;18.644;2023-06-04T10:34:57;21.00;47.70
18648;DHT22;9453;50.294;18.644;2023-06-04T10:37:25;21.10;48.10
18648;DHT22;9453;50.294;18.644;2023-06-04T10:39:57;21.20;48.60
18648;DHT22;9453;50.294;18.644;2023-06-04T10:42:25;21.30;48.40
18648;DHT22;9453;50.294;18.644;2023-06-04T10:44:53;21.10;48.50
18648;DHT22;9453;50.294;18.644;2023-06-04T10:47:20;21.40;48.60
18648;DHT22;9453;50.294;18.644;2023-06-04T10:49:49;21.40;48.20
18648;DHT22;9453;50.294;18.644;2023-06-04T10:52:17;21.50;48.20
18648;DHT22;9453;50.294;18.644;2023-06-04T10:54:45;21.50;47.90
18648;DHT22;9453;50.294;18.644;2023-06-04T10:57:15;21.60;48.30
18648;DHT22;9453;50.294;18.644;2023-06-04T10:59:53;21.70;48.30
18648;DHT22;9453;50.294;18.644;2023-06-04T11:02:20;21.80;47.80
18648;DHT22;9453;50.294;18.644;2023-06-04T11:04:57;21.80;46.90
18648;DHT22;9453;50.294;18.644;2023-06-04T11:07:27;21.90;47.10
18648;DHT22;9453;50.294;18.644;2023-06-04T11:09:55;21.90;47.00
18648;DHT22;9453;50.294;18.644;2023-06-04T11:12:22;21.90;47.00
18648;DHT22;9453;50.294;18.644;2023-06-04T11:14:56;21.90;46.80
18648;DHT22;9453;50.294;18.644;2023-06-04T11:17:23;22.00;46.80
18648;DHT22;9453;50.294;18.644;2023-06-04T11:19:51;22.10;47.00
18648;DHT22;9453;50.294;18.644;2023-06-04T11:22:20;22.20;46.30
18648;DHT22;9453;50.294;18.644;2023-06-04T11:24:47;22.20;46.00
18648;DHT22;9453;50.294;18.644;2023-06-04T11:27:16;22.30;45.90
18648;DHT22;9453;50.294;18.644;2023-06-04T11:29:43;22.30;45.90
18648;DHT22;9453;50.294;18.644;2023-06-04T11:32:21;22.40;45.80
18648;DHT22;9453;50.294;18.644;2023-06-04T11:34:48;22.40;45.20
18648;DHT22;9453;50.294;18.644;2023-06-04T11:37:16;22.40;45.20
18648;DHT22;9453;50.294;18.644;2023-06-04T11:39:43;22.40;45.10
18648;DHT22;9453;50.294;18.644;2023-06-04T11:42:10;22.40;45.20
18648;DHT22;9453;50.294;18.644;2023-06-04T11:44:37;22.30;44.50
18648;DHT22;9453;50.294;18.644;2023-06-04T11:47:10;22.30;44.90
18648;DHT22;9453;50.294;18.644;2023-06-04T11:49:38;22.30;44.70
18648;DHT22;9453;50.294;18.644;2023-06-04T11:52:05;22.20;44.80
18648;DHT22;9453;50.294;18.644;2023-06-04T11:54:34;22.30;44.90
18648;DHT22;9453;50.294;18.644;2023-06-04T11:57:04;22.30;44.20
18648;DHT22;9453;50.294;18.644;2023-06-04T11:59:32;22.30;45.10
18648;DHT22;9453;50.294;18.644;2023-06-04T12:01:59;22.20;44.50
18648;DHT22;9453;50.294;18.644;2023-06-04T12:04:30;22.20;44.70
18648;DHT22;9453;50.294;18.644;2023-06-04T12:07:06;22.30;45.70
18648;DHT22;9453;50.294;18.644;2023-06-04T12:09:36;22.30;44.90
18648;DHT22;9453;50.294;18.644;2023-06-04T12:12:05;22.40;45.50
18648;DHT22;9453;50.294;18.644;2023-06-04T12:14:32;22.40;45.00
18648;DHT22;9453;50.294;18.644;2023-06-04T12:17:02;22.40;45.00
18648;DHT22;9453;50.294;18.644;2023-06-04T12:19:32;22.50;44.90
18648;DHT22;9453;50.294;18.644;2023-06-04T12:22:00;22.50;45.40
18648;DHT22;9453;50.294;18.644;2023-06-04T12:24:28;22.50;45.10
18648;DHT22;9453;50.294;18.644;2023-06-04T12:27:04;22.50;45.30
18648;DHT22;9453;50.294;18.644;2023-06-04T12:29:33;22.50;45.70
18648;DHT22;9453;50.294;18.644;2023-06-04T12:32:04;22.60;44.90
18648;DHT22;9453;50.294;18.644;2023-06-04T12:34:31;22.60;44.30
18648;DHT22;9453;50.294;18.644;2023-06-04T12:36:58;22.70;44.40
18648;DHT22;9453;50.294;18.644;2023-06-04T12:39:25;22.90;44.70
18648;DHT22;9453;50.294;18.644;2023-06-04T12:41:52;23.10;45.20
18648;DHT22;9453;50.294;18.644;2023-06-04T12:44:21;23.40;44.00
18648;DHT22;9453;50.294;18.644;2023-06-04T12:46:48;23.60;43.60
18648;DHT22;9453;50.294;18.644;2023-06-04T12:49:15;23.80;43.50
18648;DHT22;9453;50.294;18.644;2023-06-04T12:51:42;23.90;43.50
18648;DHT22;9453;50.294;18.644;2023-06-04T12:54:09;24.10;43.10
18648;DHT22;9453;50.294;18.644;2023-06-04T12:56:36;24.20;41.50
18648;DHT22;9453;50.294;18.644;2023-06-04T12:59:03;24.20;41.60
18648;DHT22;9453;50.294;18.644;2023-06-04T13:01:31;24.30;42.00
18648;DHT22;9453;50.294;18.644;2023-06-04T13:03:58;24.40;41.90
18648;DHT22;9453;50.294;18.644;2023-06-04T13:06:25;24.50;42.20
18648;DHT22;9453;50.294;18.644;2023-06-04T13:08:52;24.70;42.20
18648;DHT22;9453;50.294;18.644;2023-06-04T13:11:19;24.80;41.40
18648;DHT22;9453;50.294;18.644;2023-06-04T13:13:47;24.90;41.60
18648;DHT22;9453;50.294;18.644;2023-06-04T13:16:14;25.00;40.90
18648;DHT22;9453;50.294;18.644;2023-06-04T13:18:42;25.10;41.00
18648;DHT22;9453;50.294;18.644;2023-06-04T13:21:09;25.30;41.80
18648;DHT22;9453;50.294;18.644;2023-06-04T13:23:36;25.40;39.30
18648;DHT22;9453;50.294;18.644;2023-06-04T13:26:03;25.50;40.30
18648;DHT22;9453;50.294;18.644;2023-06-04T13:28:29;25.50;39.50
18648;DHT22;9453;50.294;18.644;2023-06-04T13:30:57;25.60;39.90
18648;DHT22;9453;50.294;18.644;2023-06-04T13:33:24;25.80;39.90
18648;DHT22;9453;50.294;18.644;2023-06-04T13:35:52;25.90;39.10
18648;DHT22;9453;50.294;18.644;2023-06-04T13:38:19;25.90;38.80
18648;DHT22;9453;50.294;18.644;2023-06-04T13:40:46;26.10;38.50
18648;DHT22;9453;50.294;18.644;2023-06-04T13:43:13;26.20;39.30
18648;DHT22;9453;50.294;18.644;2023-06-04T13:45:41;26.20;38.40
18648;DHT22;9453;50.294;18.644;2023-06-04T13:48:10;26.30;38.20
18648;DHT22;9453;50.294;18.644;2023-06-04T13:50:36;26.20;37.30
18648;DHT22;9453;50.294;18.644;2023-06-04T13:53:05;26.30;37.50
18648;DHT22;9453;50.294;18.644;2023-06-04T13:55:32;26.50;37.60
18648;DHT22;9453;50.294;18.644;2023-06-04T13:57:59;26.70;38.60
18648;DHT22;9453;50.294;18.644;2023-06-04T14:00:26;26.90;37.50
18648;DHT22;9453;50.294;18.644;2023-06-04T14:02:55;27.20;37.60
18648;DHT22;9453;50.294;18.644;2023-06-04T14:05:24;27.50;37.00
18648;DHT22;9453;50.294;18.644;2023-06-04T14:07:53;27.60;36.60
18648;DHT22;9453;50.294;18.644;2023-06-04T14:10:21;27.60;36.20
18648;DHT22;9453;50.294;18.644;2023-06-04T14:12:48;27.70;35.20
18648;DHT22;9453;50.294;18.644;2023-06-04T14:15:15;27.80;35.60
18648;DHT22;9453;50.294;18.644;2023-06-04T14:17:42;27.90;36.10
18648;DHT22;9453;50.294;18.644;2023-06-04T14:20:09;27.90;35.50
18648;DHT22;9453;50.294;18.644;2023-06-04T14:22:37;27.50;34.70
18648;DHT22;9453;50.294;18.644;2023-06-04T14:25:05;27.50;35.60
18648;DHT22;9453;50.294;18.644;2023-06-04T14:27:34;27.30;34.60
18648;DHT22;9453;50.294;18.644;2023-06-04T14:30:02;27.30;35.20
18648;DHT22;9453;50.294;18.644;2023-06-04T14:32:29;27.60;36.20
18648;DHT22;9453;50.294;18.644;2023-06-04T14:34:57;27.70;34.80
18648;DHT22;9453;50.294;18.644;2023-06-04T14:37:24;27.80;35.90
18648;DHT22;9453;50.294;18.644;2023-06-04T14:39:51;27.90;35.70
18648;DHT22;9453;50.294;18.644;2023-06-04T14:42:18;27.90;35.10
18648;DHT22;9453;50.294;18.644;2023-06-04T14:44:46;28.00;34.60
18648;DHT22;9453;50.294;18.644;2023-06-04T14:47:14;27.60;34.10
18648;DHT22;9453;50.294;18.644;2023-06-04T14:49:41;27.80;34.80
18648;DHT22;9453;50.294;18.644;2023-06-04T14:52:08;27.70;33.90
18648;DHT22;9453;50.294;18.644;2023-06-04T14:54:35;27.60;33.60
18648;DHT22;9453;50.294;18.644;2023-06-04T14:57:02;27.40;34.40
18648;DHT22;9453;50.294;18.644;2023-06-04T14:59:29;27.70;33.90
18648;DHT22;9453;50.294;18.644;2023-06-04T15:01:58;27.70;34.20
18648;DHT22;9453;50.294;18.644;2023-06-04T15:04:25;27.90;34.10
18648;DHT22;9453;50.294;18.644;2023-06-04T15:06:52;28.20;34.40
18648;DHT22;9453;50.294;18.644;2023-06-04T15:09:18;28.20;33.20
18648;DHT22;9453;50.294;18.644;2023-06-04T15:11:46;28.50;33.80
18648;DHT22;9453;50.294;18.644;2023-06-04T15:14:14;28.70;33.10
18648;DHT22;9453;50.294;18.644;2023-06-04T15:16:41;28.90;33.20
18648;DHT22;9453;50.294;18.644;2023-06-04T15:19:10;29.30;32.60
18648;DHT22;9453;50.294;18.644;2023-06-04T15:21:37;29.50;32.50
18648;DHT22;9453;50.294;18.644;2023-06-04T15:24:04;29.50;31.80
18648;DHT22;9453;50.294;18.644;2023-06-04T15:26:31;29.50;31.70
18648;DHT22;9453;50.294;18.644;2023-06-04T15:28:58;29.50;32.20
18648;DHT22;9453;50.294;18.644;2023-06-04T15:31:25;29.50;31.50
18648;DHT22;9453;50.294;18.644;2023-06-04T15:33:51;29.40;31.60
18648;DHT22;9453;50.294;18.644;2023-06-04T15:36:20;29.30;31.30
18648;DHT22;9453;50.294;18.644;2023-06-04T15:38:48;29.30;31.40
18648;DHT22;9453;50.294;18.644;2023-06-04T15:41:15;29.10;32.00
18648;DHT22;9453;50.294;18.644;2023-06-04T15:43:42;29.20;32.70
18648;DHT22;9453;50.294;18.644;2023-06-04T15:46:09;29.40;32.00
18648;DHT22;9453;50.294;18.644;2023-06-04T15:48:36;29.50;31.50
18648;DHT22;9453;50.294;18.644;2023-06-04T15:51:03;29.10;30.50
18648;DHT22;9453;50.294;18.644;2023-06-04T15:53:31;28.60;30.80
18648;DHT22;9453;50.294;18.644;2023-06-04T15:55:58;28.30;31.50
18648;DHT22;9453;50.294;18.644;2023-06-04T15:58:25;27.80;33.50
18648;DHT22;9453;50.294;18.644;2023-06-04T16:00:52;27.20;34.20
18648;DHT22;9453;50.294;18.644;2023-06-04T16:03:19;26.50;34.30
18648;DHT22;9453;50.294;18.644;2023-06-04T16:05:46;26.00;35.60
18648;DHT22;9453;50.294;18.644;2023-06-04T16:08:13;25.60;36.70
18648;DHT22;9453;50.294;18.644;2023-06-04T16:10:42;25.40;37.20
18648;DHT22;9453;50.294;18.644;2023-06-04T16:13:10;25.20;37.80
18648;DHT22;9453;50.294;18.644;2023-06-04T16:15:37;24.80;37.00
18648;DHT22;9453;50.294;18.644;2023-06-04T16:18:04;24.60;38.00
18648;DHT22;9453;50.294;18.644;2023-06-04T16:20:32;24.40;38.00
18648;DHT22;9453;50.294;18.644;2023-06-04T16:22:59;24.30;38.50
18648;DHT22;9453;50.294;18.644;2023-06-04T16:25:26;24.40;38.60
18648;DHT22;9453;50.294;18.644;2023-06-04T16:27:56;24.60;38.50
18648;DHT22;9453;50.294;18.644;2023-06-04T16:30:23;24.40;38.30
18648;DHT22;9453;50.294;18.644;2023-06-04T16:32:50;24.10;38.90
18648;DHT22;9453;50.294;18.644;2023-06-04T16:35:17;23.80;38.80
18648;DHT22;9453;50.294;18.644;2023-06-04T16:37:44;23.60;39.00
18648;DHT22;9453;50.294;18.644;2023-06-04T16:40:11;23.40;39.90
18648;DHT22;9453;50.294;18.644;2023-06-04T16:42:38;23.30;39.50
18648;DHT22;9453;50.294;18.644;2023-06-04T16:45:08;23.20;40.00
18648;DHT22;9453;50.294;18.644;2023-06-04T16:47:35;23.20;40.50
18648;DHT22;9453;50.294;18.644;2023-06-04T16:50:03;23.20;41.00
18648;DHT22;9453;50.294;18.644;2023-06-04T16:52:31;23.10;41.10
18648;DHT22;9453;50.294;18.644;2023-06-04T16:54:58;23.10;41.00
18648;DHT22;9453;50.294;18.644;2023-06-04T16:57:25;23.00;40.50
18648;DHT22;9453;50.294;18.644;2023-06-04T16:59:52;22.90;41.20
18648;DHT22;9453;50.294;18.644;2023-06-04T17:02:21;22.90;40.70
18648;DHT22;9453;50.294;18.644;2023-06-04T17:04:48;23.20;40.80
18648;DHT22;9453;50.294;18.644;2023-06-04T17:07:15;23.10;40.20
18648;DHT22;9453;50.294;18.644;2023-06-04T17:09:42;23.10;41.00
18648;DHT22;9453;50.294;18.644;2023-06-04T17:12:09;23.10;41.20
18648;DHT22;9453;50.294;18.644;2023-06-04T17:14:36;23.00;40.00
18648;DHT22;9453;50.294;18.644;2023-06-04T17:17:03;22.80;41.10
18648;DHT22;9453;50.294;18.644;2023-06-04T17:19:32;22.90;41.30
18648;DHT22;9453;50.294;18.644;2023-06-04T17:21:59;22.70;41.20
18648;DHT22;9453;50.294;18.644;2023-06-04T17:24:28;22.50;40.50
18648;DHT22;9453;50.294;18.644;2023-06-04T17:26:55;22.50;40.80
18648;DHT22;9453;50.294;18.644;2023-06-04T17:29:23;22.30;41.20
18648;DHT22;9453;50.294;18.644;2023-06-04T17:31:50;22.30;41.60
18648;DHT22;9453;50.294;18.644;2023-06-04T17:34:17;22.20;42.00
18648;DHT22;9453;50.294;18.644;2023-06-04T17:36:45;22.10;42.20
18648;DHT22;9453;50.294;18.644;2023-06-04T17:39:12;22.00;42.40
18648;DHT22;9453;50.294;18.644;2023-06-04T17:41:39;21.90;42.50
18648;DHT22;9453;50.294;18.644;2023-06-04T17:44:06;21.90;43.20
18648;DHT22;9453;50.294;18.644;2023-06-04T17:46:33;21.80;43.40
18648;DHT22;9453;50.294;18.644;2023-06-04T17:49:00;21.80;44.10
18648;DHT22;9453;50.294;18.644;2023-06-04T17:51:28;21.70;43.40
18648;DHT22;9453;50.294;18.644;2023-06-04T17:53:57;21.60;43.40
18648;DHT22;9453;50.294;18.644;2023-06-04T17:56:24;21.50;43.50
18648;DHT22;9453;50.294;18.644;2023-06-04T17:58:52;21.50;43.40
18648;DHT22;9453;50.294;18.644;2023-06-04T18:01:19;21.40;42.90
18648;DHT22;9453;50.294;18.644;2023-06-04T18:03:46;21.30;43.00
18648;DHT22;9453;50.294;18.644;2023-06-04T18:06:15;21.30;43.90
18648;DHT22;9453;50.294;18.644;2023-06-04T18:08:42;21.20;44.10
18648;DHT22;9453;50.294;18.644;2023-06-04T18:11:11;21.10;44.50
18648;DHT22;9453;50.294;18.644;2023-06-04T18:13:38;21.10;45.00
18648;DHT22;9453;50.294;18.644;2023-06-04T18:16:05;21.00;45.10
18648;DHT22;9453;50.294;18.644;2023-06-04T18:18:32;20.90;45.00
18648;DHT22;9453;50.294;18.644;2023-06-04T18:20:59;20.80;44.90
18648;DHT22;9453;50.294;18.644;2023-06-04T18:23:26;20.70;45.50
18648;DHT22;9453;50.294;18.644;2023-06-04T18:25:53;20.60;46.00
18648;DHT22;9453;50.294;18.644;2023-06-04T18:28:21;20.60;47.10
18648;DHT22;9453;50.294;18.644;2023-06-04T18:30:48;20.50;45.90
18648;DHT22;9453;50.294;18.644;2023-06-04T18:33:15;20.40;46.30
18648;DHT22;9453;50.294;18.644;2023-06-04T18:35:42;20.30;46.00
18648;DHT22;9453;50.294;18.644;2023-06-04T18:38:09;20.20;46.80
18648;DHT22;9453;50.294;18.644;2023-06-04T18:40:36;20.10;46.90
18648;DHT22;9453;50.294;18.644;2023-06-04T18:43:03;20.10;47.10
18648;DHT22;9453;50.294;18.644;2023-06-04T18:45:32;20.00;47.50
18648;DHT22;9453;50.294;18.644;2023-06-04T18:47:59;19.90;48.00
18648;DHT22;9453;50.294;18.644;2023-06-04T18:50:26;19.80;48.30
18648;DHT22;9453;50.294;18.644;2023-06-04T18:52:53;19.70;48.60
18648;DHT22;9453;50.294;18.644;2023-06-04T18:55:21;19.60;48.80
18648;DHT22;9453;50.294;18.644;2023-06-04T18:57:48;19.60;49.10
18648;DHT22;9453;50.294;18.644;2023-06-04T19:00:15;19.50;49.30
18648;DHT22;9453;50.294;18.644;2023-06-04T19:02:44;19.40;49.30
18648;DHT22;9453;50.294;18.644;2023-06-04T19:05:11;19.40;49.60
18648;DHT22;9453;50.294;18.644;2023-06-04T19:07:38;19.30;49.80
18648;DHT22;9453;50.294;18.644;2023-06-04T19:10:06;19.20;49.80
18648;DHT22;9453;50.294;18.644;2023-06-04T19:12:33;19.20;50.00
18648;DHT22;9453;50.294;18.644;2023-06-04T19:15:01;19.10;50.50
18648;DHT22;9453;50.294;18.644;2023-06-04T19:17:28;19.00;50.50
18648;DHT22;9453;50.294;18.644;2023-06-04T19:19:57;19.00;50.50
18648;DHT22;9453;50.294;18.644;2023-06-04T19:22:24;18.90;50.70
18648;DHT22;9453;50.294;18.644;2023-06-04T19:24:51;18.90;50.70
18648;DHT22;9453;50.294;18.644;2023-06-04T19:27:18;18.80;51.20
18648;DHT22;9453;50.294;18.644;2023-06-04T19:29:45;18.80;51.00
18648;DHT22;9453;50.294;18.644;2023-06-04T19:32:12;18.70;51.10
18648;DHT22;9453;50.294;18.644;2023-06-04T19:34:39;18.60;51.10